Time;durP1;ratioP1;P1;durP2;ratioP2;P2;SDS_P1;SDS_P2;PMS_P1;PMS_P2;Temp;Humidity;BMP_temperature;BMP_pressure;BME280_temperature;BME280_humidity;BME280_pressure;Samples;Min_cycle;Max_cycle;Signal;HPM_P1;HPM_P2
2023/03/14 00:03:25;;;;;;;;;;;11.03;10.83;;;;;;2668849;76;20970;-88
2023/03/14 00:06:55;;;;;;;;;;;11.11;10.75;;;;;;2667888;76;21053;-88
2023/03/14 00:10:23;;;;;;;;;;;11.20;10.62;;;;;;2668535;76;20905;-86
2023/03/14 00:13:51;;;;;;;;;;;11.24;10.29;;;;;;2667549;76;20421;-85
2023/03/14 00:17:19;;;;;;;;;;;11.29;10.22;;;;;;2668359;76;20408;-87
2023/03/14 00:20:47;;;;;;;;;;;11.29;11.22;;;;;;2669742;76;20430;-86
2023/03/14 00:24:15;;;;;;;;;;;11.14;13.85;;;;;;2668359;76;20435;-86
2023/03/14 00:27:44;;;;;;;;;;;11.29;14.45;;;;;;2668970;76;20315;-86
2023/03/14 00:31:12;;;;;;;;;;;11.48;13.79;;;;;;2669045;76;20422;-87
2023/03/14 00:34:40;;;;;;;;;;;11.63;13.21;;;;;;2668188;76;20457;-88
2023/03/14 00:38:08;;;;;;;;;;;11.70;13.63;;;;;;2667599;76;20467;-87
2023/03/14 00:41:36;;;;;;;;;;;11.64;14.53;;;;;;2668744;76;20437;-88
2023/03/14 00:45:04;;;;;;;;;;;11.64;14.87;;;;;;2669195;76;20340;-88
2023/03/14 00:48:32;;;;;;;;;;;11.68;14.42;;;;;;2668630;76;20473;-86
2023/03/14 00:52:00;;;;;;;;;;;11.73;13.97;;;;;;2669709;76;20413;-87
2023/03/14 00:55:28;;;;;;;;;;;11.82;13.75;;;;;;2668275;76;20308;-86
2023/03/14 00:58:56;;;;;;;;;;;11.88;13.57;;;;;;2668339;76;20449;-87
2023/03/14 01:02:24;;;;;;;;;;;11.79;14.73;;;;;;2668298;76;20308;-87
2023/03/14 01:05:52;;;;;;;;;;;11.79;14.94;;;;;;2668739;76;20429;-87
2023/03/14 01:09:21;;;;;;;;;;;11.83;15.16;;;;;;2669204;76;20438;-88
2023/03/14 01:12:49;;;;;;;;;;;11.84;15.12;;;;;;2668966;76;20466;-87
2023/03/14 01:16:17;;;;;;;;;;;11.53;16.37;;;;;;2667941;76;20395;-87
2023/03/14 01:19:45;;;;;;;;;;;11.17;19.45;;;;;;2668673;76;20416;-88
2023/03/14 01:23:13;;;;;;;;;;;10.92;21.78;;;;;;2668912;76;20421;-87
2023/03/14 01:26:41;;;;;;;;;;;10.82;23.46;;;;;;2667878;76;20422;-87
2023/03/14 01:30:09;;;;;;;;;;;10.83;24.17;;;;;;2666963;76;20939;-88
2023/03/14 01:33:37;;;;;;;;;;;10.98;23.99;;;;;;2669673;76;20808;-88
2023/03/14 01:37:07;;;;;;;;;;;10.93;24.36;;;;;;2669213;76;21165;-88
2023/03/14 01:40:38;;;;;;;;;;;10.85;25.59;;;;;;2667994;76;20472;-87
2023/03/14 01:44:05;;;;;;;;;;;10.89;26.00;;;;;;2669538;76;20954;-86
2023/03/14 01:47:33;;;;;;;;;;;10.78;26.50;;;;;;2669242;76;21057;-87
2023/03/14 01:51:01;;;;;;;;;;;10.72;27.85;;;;;;2668087;76;20831;-87
2023/03/14 01:54:29;;;;;;;;;;;10.40;29.74;;;;;;2669940;76;20874;-85
2023/03/14 01:57:57;;;;;;;;;;;10.27;33.79;;;;;;2668578;76;20855;-86
2023/03/14 02:01:25;;;;;;;;;;;10.07;35.89;;;;;;2668250;76;20916;-85
2023/03/14 02:04:53;;;;;;;;;;;10.00;37.98;;;;;;2668807;76;21084;-88
2023/03/14 02:08:22;;;;;;;;;;;9.99;39.32;;;;;;2669510;76;20935;-93
2023/03/14 02:11:52;;;;;;;;;;;10.08;40.83;;;;;;2669884;76;20474;-91
2023/03/14 02:15:20;;;;;;;;;;;10.12;40.83;;;;;;2669226;76;21024;-91
2023/03/14 02:18:50;;;;;;;;;;;10.29;40.30;;;;;;2669592;76;20649;-92
2023/03/14 02:22:18;;;;;;;;;;;10.33;40.23;;;;;;2669369;76;20944;-91
2023/03/14 02:25:46;;;;;;;;;;;10.40;39.57;;;;;;2668552;76;20475;-92
2023/03/14 02:29:14;;;;;;;;;;;10.41;39.24;;;;;;2669073;76;20413;-91
2023/03/14 02:32:43;;;;;;;;;;;10.37;38.85;;;;;;2667258;76;21052;-91
2023/03/14 02:36:11;;;;;;;;;;;10.34;38.64;;;;;;2668224;76;20469;-91
2023/03/14 02:39:39;;;;;;;;;;;10.31;38.38;;;;;;2667516;76;20469;-91
2023/03/14 02:43:07;;;;;;;;;;;10.30;38.01;;;;;;2666862;76;20430;-90
2023/03/14 02:46:40;;;;;;;;;;;10.34;37.65;;;;;;2668608;76;21203;-90
2023/03/14 02:50:05;;;;;;;;;;;10.28;37.33;;;;;;2667752;76;20358;-90
2023/03/14 02:53:33;;;;;;;;;;;10.25;37.04;;;;;;2670142;76;20357;-90
2023/03/14 02:57:01;;;;;;;;;;;10.23;37.10;;;;;;2668446;76;20433;-91
2023/03/14 03:00:30;;;;;;;;;;;10.27;36.79;;;;;;2667552;76;20465;-90
2023/03/14 03:03:58;;;;;;;;;;;10.30;36.49;;;;;;2668982;76;20436;-90
2023/03/14 03:07:26;;;;;;;;;;;10.30;36.06;;;;;;2669398;76;20433;-91
2023/03/14 03:10:55;;;;;;;;;;;10.28;36.24;;;;;;2667197;76;20442;-91
2023/03/14 03:14:23;;;;;;;;;;;10.27;36.13;;;;;;2669710;76;20444;-90
2023/03/14 03:17:51;;;;;;;;;;;10.23;36.28;;;;;;2668261;76;20401;-91
2023/03/14 03:21:23;;;;;;;;;;;10.21;36.58;;;;;;2667263;76;20879;-91
2023/03/14 03:24:49;;;;;;;;;;;10.12;36.51;;;;;;2669496;76;20448;-91
2023/03/14 03:28:17;;;;;;;;;;;10.10;36.67;;;;;;2668218;76;20938;-91
2023/03/14 03:31:45;;;;;;;;;;;10.07;36.73;;;;;;2668469;76;20459;-90
2023/03/14 03:35:14;;;;;;;;;;;9.95;36.57;;;;;;2668765;76;20424;-91
2023/03/14 03:38:42;;;;;;;;;;;9.97;36.66;;;;;;2667389;76;20999;-90
2023/03/14 03:42:10;;;;;;;;;;;9.97;36.88;;;;;;2667895;76;20446;-90
2023/03/14 03:45:38;;;;;;;;;;;10.00;36.90;;;;;;2668267;76;20486;-90
2023/03/14 03:49:06;;;;;;;;;;;10.00;36.81;;;;;;2668387;76;20466;-90
2023/03/14 03:52:34;;;;;;;;;;;9.99;36.76;;;;;;2668267;76;20477;-90
2023/03/14 03:56:02;;;;;;;;;;;9.90;36.73;;;;;;2668462;76;20951;-91
2023/03/14 03:59:30;;;;;;;;;;;9.88;36.69;;;;;;2667589;76;20917;-91
2023/03/14 04:02:59;;;;;;;;;;;9.81;36.67;;;;;;2669048;76;20457;-91
2023/03/14 04:06:27;;;;;;;;;;;9.76;36.53;;;;;;2668034;76;20454;-90
2023/03/14 04:09:55;;;;;;;;;;;9.76;36.40;;;;;;2668219;76;21194;-90
2023/03/14 04:13:26;;;;;;;;;;;9.71;36.27;;;;;;2669032;76;20301;-91
2023/03/14 04:16:54;;;;;;;;;;;9.69;36.05;;;;;;2668199;76;20457;-90
2023/03/14 04:20:22;;;;;;;;;;;9.62;35.76;;;;;;2667602;76;20564;-90
2023/03/14 04:23:50;;;;;;;;;;;9.65;35.80;;;;;;2669377;76;20478;-90
2023/03/14 04:27:19;;;;;;;;;;;9.66;35.82;;;;;;2669353;76;20446;-90
2023/03/14 04:30:47;;;;;;;;;;;9.63;35.42;;;;;;2668412;76;20352;-90
2023/03/14 04:34:15;;;;;;;;;;;9.61;35.13;;;;;;2668177;76;20560;-90
2023/03/14 04:37:43;;;;;;;;;;;9.59;34.61;;;;;;2668475;76;20367;-90
2023/03/14 04:41:11;;;;;;;;;;;9.54;34.10;;;;;;2667636;76;20407;-90
2023/03/14 04:44:39;;;;;;;;;;;9.55;34.07;;;;;;2667722;76;20412;-90
2023/03/14 04:48:08;;;;;;;;;;;9.55;33.50;;;;;;2668322;76;20459;-90
2023/03/14 04:51:36;;;;;;;;;;;9.44;32.52;;;;;;2667665;76;20527;-90
2023/03/14 04:55:04;;;;;;;;;;;9.44;32.67;;;;;;2669764;76;20458;-90
2023/03/14 04:58:32;;;;;;;;;;;9.45;32.54;;;;;;2668282;76;20320;-90
2023/03/14 05:02:00;;;;;;;;;;;9.41;32.06;;;;;;2666581;76;20384;-90
2023/03/14 05:05:28;;;;;;;;;;;9.32;31.26;;;;;;2669195;76;20350;-90
2023/03/14 05:08:56;;;;;;;;;;;9.35;31.42;;;;;;2668869;76;20408;-90
2023/03/14 05:12:24;;;;;;;;;;;9.30;30.90;;;;;;2668903;76;20593;-90
2023/03/14 05:15:55;;;;;;;;;;;9.32;30.82;;;;;;2668531;76;20787;-90
2023/03/14 05:19:22;;;;;;;;;;;9.31;30.34;;;;;;2669571;76;20336;-89
2023/03/14 05:22:50;;;;;;;;;;;9.31;30.45;;;;;;2668697;76;21207;-90
2023/03/14 05:26:19;;;;;;;;;;;9.27;30.28;;;;;;2669516;76;20450;-90
2023/03/14 05:29:47;;;;;;;;;;;9.27;30.17;;;;;;2669501;76;20540;-90
2023/03/14 05:33:15;;;;;;;;;;;9.23;30.00;;;;;;2671737;76;20446;-90
2023/03/14 05:36:43;;;;;;;;;;;9.25;29.85;;;;;;2668616;76;20884;-91
2023/03/14 05:40:11;;;;;;;;;;;9.30;29.76;;;;;;2669555;76;20455;-91
2023/03/14 05:43:39;;;;;;;;;;;9.31;29.47;;;;;;2668086;76;20428;-91
2023/03/14 05:47:07;;;;;;;;;;;9.27;29.10;;;;;;2668344;76;20413;-91
2023/03/14 05:50:38;;;;;;;;;;;9.26;28.81;;;;;;2666159;76;21224;-92
2023/03/14 05:54:05;;;;;;;;;;;9.33;28.84;;;;;;2673269;76;20424;-94
2023/03/14 05:57:34;;;;;;;;;;;9.30;28.27;;;;;;2676040;76;20315;-94
2023/03/14 06:01:02;;;;;;;;;;;9.36;28.33;;;;;;2673718;76;20477;-95
2023/03/14 06:04:30;;;;;;;;;;;9.41;28.05;;;;;;2677184;76;20442;-96
2023/03/14 06:08:00;;;;;;;;;;;9.46;28.22;;;;;;2679743;76;20440;-96
2023/03/14 06:11:38;;;;;;;;;;;9.52;28.00;;;;;;2679585;76;20375;-96
2023/03/14 06:15:14;;;;;;;;;;;9.53;27.89;;;;;;2678472;76;20392;-96
2023/03/14 06:18:48;;;;;;;;;;;9.54;27.80;;;;;;2684779;76;20399;-96
2023/03/14 06:22:25;;;;;;;;;;;9.59;27.52;;;;;;2684398;76;20341;-96
2023/03/14 06:25:54;;;;;;;;;;;9.63;27.48;;;;;;2684268;76;20441;-96
2023/03/14 06:29:22;;;;;;;;;;;9.71;27.53;;;;;;2680076;76;20428;-96
2023/03/14 06:32:50;;;;;;;;;;;9.82;27.45;;;;;;2679890;76;20404;-96
2023/03/14 06:36:18;;;;;;;;;;;9.91;27.23;;;;;;2681316;76;20906;-96
2023/03/14 06:39:49;;;;;;;;;;;10.06;27.17;;;;;;2680861;76;20257;-94
2023/03/14 06:43:17;;;;;;;;;;;10.18;26.75;;;;;;2680427;76;20422;-96
2023/03/14 06:46:46;;;;;;;;;;;10.33;26.33;;;;;;2680949;76;20382;-96
2023/03/14 06:50:14;;;;;;;;;;;10.49;26.14;;;;;;2679886;76;20400;-96
2023/03/14 06:53:42;;;;;;;;;;;10.53;25.75;;;;;;2681883;76;20419;-96
2023/03/14 06:57:10;;;;;;;;;;;10.53;25.96;;;;;;2679634;76;20435;-95
2023/03/14 07:00:38;;;;;;;;;;;10.59;25.92;;;;;;2680044;76;20439;-95
2023/03/14 07:04:06;;;;;;;;;;;10.69;25.65;;;;;;2680418;76;20422;-94
2023/03/14 07:07:35;;;;;;;;;;;10.71;25.14;;;;;;2682430;76;20287;-94
2023/03/14 07:11:03;;;;;;;;;;;10.73;25.27;;;;;;2680845;76;20274;-93
2023/03/14 07:14:31;;;;;;;;;;;10.84;25.11;;;;;;2682872;76;20393;-94
2023/03/14 07:18:04;;;;;;;;;;;10.95;25.13;;;;;;2681213;76;20344;-94
2023/03/14 07:21:31;;;;;;;;;;;10.92;24.71;;;;;;2680226;76;20418;-94
2023/03/14 07:24:59;;;;;;;;;;;10.90;24.75;;;;;;2680535;76;20471;-94
2023/03/14 07:28:27;;;;;;;;;;;10.88;24.23;;;;;;2679347;76;20415;-94
2023/03/14 07:32:00;;;;;;;;;;;10.83;23.95;;;;;;2678720;76;20327;-94
2023/03/14 07:35:28;;;;;;;;;;;10.80;23.84;;;;;;2681072;76;20454;-93
2023/03/14 07:38:59;;;;;;;;;;;10.75;23.34;;;;;;2680584;76;20322;-94
2023/03/14 07:42:27;;;;;;;;;;;10.81;23.34;;;;;;2680126;76;20443;-94
2023/03/14 07:45:55;;;;;;;;;;;10.87;23.22;;;;;;2679442;76;20349;-94
2023/03/14 07:49:23;;;;;;;;;;;10.99;23.19;;;;;;2678751;76;20312;-94
2023/03/14 07:52:54;;;;;;;;;;;11.13;23.06;;;;;;2679575;76;20312;-93
2023/03/14 07:56:22;;;;;;;;;;;11.27;22.59;;;;;;2679582;76;20400;-93
2023/03/14 07:59:53;;;;;;;;;;;11.52;22.67;;;;;;2680398;76;20452;-94
2023/03/14 08:03:21;;;;;;;;;;;11.68;22.18;;;;;;2679251;76;20464;-94
2023/03/14 08:06:58;;;;;;;;;;;11.53;19.09;;;;;;2675239;76;20420;-93
2023/03/14 08:10:30;;;;;;;;;;;11.84;20.13;;;;;;2671436;76;20428;-94
2023/03/14 08:14:08;;;;;;;;;;;12.12;19.64;;;;;;2669900;76;20652;-92
2023/03/14 08:17:51;;;;;;;;;;;12.23;17.74;;;;;;2669808;76;20452;-94
2023/03/14 08:21:34;;;;;;;;;;;12.51;17.83;;;;;;2669342;76;20381;-91
2023/03/14 08:25:09;;;;;;;;;;;12.63;16.93;;;;;;2667716;76;20817;-92
2023/03/14 08:28:51;;;;;;;;;;;12.89;16.74;;;;;;2667162;76;20938;-91
2023/03/14 08:32:23;;;;;;;;;;;13.01;16.64;;;;;;2670005;76;20892;-94
2023/03/14 08:36:10;;;;;;;;;;;13.10;15.41;;;;;;2670330;76;20440;-95
2023/03/14 08:44:48;;;;;;;;;;;13.35;12.89;;;;;;2670580;76;20821;-92
2023/03/14 08:48:09;;;;;;;;;;;13.65;13.62;;;;;;2669993;76;20459;-92
2023/03/14 08:51:58;;;;;;;;;;;13.58;12.13;;;;;;2668994;76;20477;-92
2023/03/14 08:55:59;;;;;;;;;;;13.62;11.65;;;;;;2670443;76;20414;-92
2023/03/14 08:59:45;;;;;;;;;;;13.85;11.56;;;;;;2669416;76;20313;-93
2023/03/14 09:03:36;;;;;;;;;;;13.82;10.20;;;;;;2669879;76;20432;-93
2023/03/14 09:07:33;;;;;;;;;;;13.93;9.73;;;;;;2669651;76;20441;-92
2023/03/14 09:11:22;;;;;;;;;;;14.24;10.30;;;;;;2675318;76;20292;-95
2023/03/14 09:15:01;;;;;;;;;;;14.38;10.65;;;;;;2669075;76;20469;-92
2023/03/14 09:18:46;;;;;;;;;;;14.60;9.98;;;;;;2668437;76;20460;-93
2023/03/14 09:22:21;;;;;;;;;;;14.62;9.48;;;;;;2667789;76;20488;-92
2023/03/14 09:26:00;;;;;;;;;;;14.43;8.16;;;;;;2669395;76;21216;-94
2023/03/14 09:37:49;;;;;;;;;;;;;;;;;;;;;
2023/03/14 09:45:03;;;;;;;;;;;;;;;;;;;;;
2023/03/14 09:48:34;;;;;;;;;;;14.41;3.32;;;;;;2669522;76;20430;-94
2023/03/14 09:52:00;;;;;;;;;;;14.79;4.82;;;;;;2669878;76;20902;-92
2023/03/14 09:55:27;;;;;;;;;;;14.97;5.34;;;;;;2668734;76;20499;-93
2023/03/14 09:59:04;;;;;;;;;;;14.72;4.02;;;;;;2669380;76;20909;-92
2023/03/14 10:02:46;;;;;;;;;;;14.53;2.93;;;;;;2670350;76;20436;-92
2023/03/14 10:06:16;;;;;;;;;;;14.80;3.88;;;;;;2669852;76;20503;-92
2023/03/14 10:09:51;;;;;;;;;;;14.45;3.53;;;;;;2669765;76;20430;-92
2023/03/14 10:13:35;;;;;;;;;;;;;;;;;;;;;
2023/03/14 10:17:01;;;;;;;;;;;15.39;3.42;;;;;;2667924;76;20544;-92
2023/03/14 10:20:38;;;;;;;;;;;15.75;3.18;;;;;;2668704;76;20500;-92
2023/03/14 10:24:06;;;;;;;;;;;15.88;2.53;;;;;;2668971;76;20410;-92
2023/03/14 10:27:34;;;;;;;;;;;16.21;2.13;;;;;;2668606;76;20920;-92
2023/03/14 10:31:02;;;;;;;;;;;16.92;1.58;;;;;;2669844;76;20462;-93
2023/03/14 10:34:33;;;;;;;;;;;17.03;0.43;;;;;;2669715;76;21088;-92
2023/03/14 10:38:02;;;;;;;;;;;16.64;0.27;;;;;;2669364;76;20445;-92
2023/03/14 10:41:33;;;;;;;;;;;16.17;1.32;;;;;;2668591;76;20440;-92
2023/03/14 10:45:02;;;;;;;;;;;15.89;1.13;;;;;;2669138;76;20411;-93
2023/03/14 10:48:30;;;;;;;;;;;15.46;1.20;;;;;;2668794;76;20432;-92
2023/03/14 10:52:23;;;;;;;;;;;15.42;2.80;;;;;;2667763;76;20425;-91
2023/03/14 10:56:03;;;;;;;;;;;15.77;3.01;;;;;;2665981;76;20461;-91
2023/03/14 11:03:40;;;;;;;;;;;;;;;;;;;;;
2023/03/14 11:07:34;;;;;;;;;;;15.22;-4.55;;;;;;2669172;76;20438;-92
2023/03/14 11:11:11;;;;;;;;;;;15.17;117.63;;;;;;2666680;76;20470;-90
2023/03/14 11:14:55;;;;;;;;;;;15.82;118.90;;;;;;2668483;76;20447;-91
2023/03/14 11:18:36;;;;;;;;;;;16.22;118.21;;;;;;2668106;76;20788;-91
2023/03/14 11:22:42;;;;;;;;;;;15.88;115.88;;;;;;2667579;76;20478;-92
2023/03/14 11:26:24;;;;;;;;;;;;;;;;;;;;;
2023/03/14 11:30:01;;;;;;;;;;;16.41;114.32;;;;;;2668685;76;20482;-91
2023/03/14 11:33:49;;;;;;;;;;;16.40;115.35;;;;;;2667946;76;20464;-90
2023/03/14 11:37:19;;;;;;;;;;;15.82;115.66;;;;;;2667144;76;20449;-90
2023/03/14 11:40:53;;;;;;;;;;;15.26;116.49;;;;;;2669056;76;20459;-90
2023/03/14 11:48:20;;;;;;;;;;;14.79;117.85;;;;;;2669491;76;20479;-91
2023/03/14 11:52:09;;;;;;;;;;;14.63;-5.65;;;;;;2668090;76;21943;-91
2023/03/14 11:55:33;;;;;;;;;;;14.97;-5.53;;;;;;2668759;76;20461;-91
2023/03/14 11:59:05;;;;;;;;;;;15.01;118.06;;;;;;2669500;76;21078;-90
2023/03/14 12:02:56;;;;;;;;;;;14.82;118.04;;;;;;2668978;76;20498;-91
2023/03/14 12:06:39;;;;;;;;;;;15.04;117.44;;;;;;2668513;76;20407;-91
2023/03/14 12:10:05;;;;;;;;;;;14.98;116.14;;;;;;2669423;76;20449;-89
2023/03/14 12:13:46;;;;;;;;;;;14.99;117.43;;;;;;2669361;76;20478;-90
2023/03/14 12:17:15;;;;;;;;;;;14.68;116.45;;;;;;2668325;76;20448;-91
2023/03/14 12:21:12;;;;;;;;;;;14.86;117.74;;;;;;2668542;76;20445;-91
2023/03/14 12:24:40;;;;;;;;;;;15.11;117.03;;;;;;2669081;76;20468;-91
2023/03/14 12:28:31;;;;;;;;;;;15.68;115.60;;;;;;2669734;76;20899;-91
2023/03/14 12:32:10;;;;;;;;;;;16.14;114.11;;;;;;2668228;76;20960;-91
2023/03/14 12:35:56;;;;;;;;;;;16.25;113.40;;;;;;2667856;76;20446;-90
2023/03/14 12:39:35;;;;;;;;;;;16.58;112.34;;;;;;2667933;76;20447;-90
2023/03/14 12:43:05;;;;;;;;;;;17.24;112.70;;;;;;2667426;76;20478;-91
2023/03/14 12:46:39;;;;;;;;;;;17.44;112.57;;;;;;2669996;76;20486;-90
2023/03/14 12:50:27;;;;;;;;;;;16.61;111.52;;;;;;2668319;76;20732;-91
2023/03/14 12:53:54;;;;;;;;;;;15.74;112.40;;;;;;2669332;76;20312;-90
2023/03/14 12:57:28;;;;;;;;;;;15.23;113.20;;;;;;2669128;76;20985;-91
2023/03/14 13:01:01;;;;;;;;;;;14.69;113.56;;;;;;2669566;76;20432;-89
2023/03/14 13:04:30;;;;;;;;;;;15.02;115.19;;;;;;2667287;76;20436;-91
2023/03/14 13:08:02;;;;;;;;;;;15.15;114.62;;;;;;2668551;76;20344;-90
2023/03/14 13:11:30;;;;;;;;;;;15.13;114.25;;;;;;2667851;76;20519;-90
2023/03/14 13:15:07;;;;;;;;;;;15.01;114.19;;;;;;2669371;76;20487;-90
2023/03/14 13:18:39;;;;;;;;;;;14.99;115.31;;;;;;2668696;76;20348;-90
2023/03/14 13:22:15;;;;;;;;;;;15.51;115.67;;;;;;2669090;76;20496;-90
2023/03/14 13:25:51;;;;;;;;;;;15.52;115.38;;;;;;2668011;76;20416;-90
2023/03/14 13:29:16;;;;;;;;;;;14.59;115.59;;;;;;2669501;76;20621;-90
2023/03/14 13:32:47;;;;;;;;;;;14.05;-5.72;;;;;;2669458;76;20494;-91
2023/03/14 13:36:18;;;;;;;;;;;13.75;-1.03;;;;;;2669665;76;20314;-91
2023/03/14 13:39:58;;;;;;;;;;;13.61;1.22;;;;;;2669692;76;20340;-91
2023/03/14 13:43:40;;;;;;;;;;;13.26;2.41;;;;;;2668821;76;20481;-91
2023/03/14 13:47:11;;;;;;;;;;;12.35;4.15;;;;;;2668292;76;20471;-89
2023/03/14 13:50:51;;;;;;;;;;;11.94;5.89;;;;;;2669717;76;20473;-91
2023/03/14 13:54:14;;;;;;;;;;;11.71;6.70;;;;;;2666430;76;20846;-90
2023/03/14 13:57:43;;;;;;;;;;;11.91;6.66;;;;;;2667079;76;21225;-89
2023/03/14 14:01:13;;;;;;;;;;;11.98;3.54;;;;;;2668096;76;20441;-89
2023/03/14 14:04:56;;;;;;;;;;;12.11;3.57;;;;;;2668305;76;20465;-89
2023/03/14 14:08:47;;;;;;;;;;;11.78;4.78;;;;;;2669775;76;20623;-89
2023/03/14 14:12:22;;;;;;;;;;;11.64;4.84;;;;;;2669907;76;20460;-92
2023/03/14 14:15:45;;;;;;;;;;;11.44;5.57;;;;;;2668365;76;20437;-91
2023/03/14 14:19:16;;;;;;;;;;;10.96;8.92;;;;;;2666259;76;20474;-90
2023/03/14 14:22:45;;;;;;;;;;;10.92;10.43;;;;;;2668315;76;20439;-89
2023/03/14 14:26:13;;;;;;;;;;;10.53;10.67;;;;;;2669000;76;20432;-91
2023/03/14 14:29:41;;;;;;;;;;;10.39;9.79;;;;;;2668178;76;20518;-92
2023/03/14 14:33:13;;;;;;;;;;;9.94;13.30;;;;;;2665974;76;20668;-89
2023/03/14 14:36:43;;;;;;;;;;;9.81;15.37;;;;;;2666567;76;20462;-89
2023/03/14 14:40:14;;;;;;;;;;;9.44;17.73;;;;;;2668678;76;20445;-91
2023/03/14 14:43:43;;;;;;;;;;;9.26;20.09;;;;;;2668567;76;20548;-93
2023/03/14 14:47:18;;;;;;;;;;;9.30;20.78;;;;;;2668873;76;20355;-94
2023/03/14 14:51:43;;;;;;;;;;;8.93;21.53;;;;;;2675991;76;20436;-96
2023/03/14 14:54:53;;;;;;;;;;;8.81;23.85;;;;;;2672318;76;20621;-90
2023/03/14 14:58:21;;;;;;;;;;;8.91;24.65;;;;;;2667465;76;20464;-89
2023/03/14 15:01:52;;;;;;;;;;;8.89;23.53;;;;;;2668051;76;20466;-90
2023/03/14 15:05:20;;;;;;;;;;;8.97;22.86;;;;;;2669270;76;20450;-89
2023/03/14 15:08:48;;;;;;;;;;;8.89;21.98;;;;;;2668079;76;20431;-90
2023/03/14 15:12:24;;;;;;;;;;;8.83;21.79;;;;;;2668823;76;20879;-91
2023/03/14 15:15:46;;;;;;;;;;;8.65;21.92;;;;;;2668727;76;20439;-92
2023/03/14 15:19:15;;;;;;;;;;;8.30;27.18;;;;;;2669291;76;20826;-93
2023/03/14 15:22:45;;;;;;;;;;;8.49;28.10;;;;;;2672801;76;20433;-93
2023/03/14 15:26:13;;;;;;;;;;;8.49;26.33;;;;;;2669853;76;20443;-92
2023/03/14 15:29:44;;;;;;;;;;;8.35;25.47;;;;;;2672688;76;20955;-92
2023/03/14 15:33:13;;;;;;;;;;;8.15;24.20;;;;;;2668010;76;21010;-91
2023/03/14 15:36:41;;;;;;;;;;;8.33;22.89;;;;;;2669375;76;20452;-89
2023/03/14 15:40:15;;;;;;;;;;;8.42;20.02;;;;;;2668160;76;20569;-91
2023/03/14 15:43:46;;;;;;;;;;;8.60;19.61;;;;;;2668456;76;21087;-91
2023/03/14 15:47:16;;;;;;;;;;;8.61;18.64;;;;;;2669011;76;20479;-92
2023/03/14 15:50:44;;;;;;;;;;;8.60;17.40;;;;;;2668921;76;20465;-92
2023/03/14 15:54:16;;;;;;;;;;;8.78;15.84;;;;;;2668064;76;20481;-89
2023/03/14 15:57:46;;;;;;;;;;;9.00;13.37;;;;;;2667359;76;20420;-90
2023/03/14 16:01:15;;;;;;;;;;;8.85;12.45;;;;;;2666706;76;20430;-91
2023/03/14 16:04:43;;;;;;;;;;;8.76;12.39;;;;;;2667369;76;20432;-90
2023/03/14 16:08:16;;;;;;;;;;;8.76;12.33;;;;;;2669156;76;20474;-92
2023/03/14 16:11:47;;;;;;;;;;;8.88;11.65;;;;;;2667319;76;20445;-92
2023/03/14 16:15:21;;;;;;;;;;;8.93;11.52;;;;;;2669036;76;20420;-93
2023/03/14 16:18:49;;;;;;;;;;;8.98;9.66;;;;;;2669219;76;20453;-93
2023/03/14 16:22:19;;;;;;;;;;;8.75;6.98;;;;;;2669359;76;20476;-93
2023/03/14 16:25:50;;;;;;;;;;;8.47;6.11;;;;;;2669183;76;21362;-93
2023/03/14 16:29:21;;;;;;;;;;;8.46;6.57;;;;;;2668994;76;20460;-91
2023/03/14 16:33:00;;;;;;;;;;;8.58;5.26;;;;;;2668996;76;21017;-91
2023/03/14 16:36:24;;;;;;;;;;;8.51;5.02;;;;;;2668537;76;20453;-91
2023/03/14 16:39:58;;;;;;;;;;;8.55;5.41;;;;;;2667357;76;20493;-92
2023/03/14 16:43:36;;;;;;;;;;;8.62;5.19;;;;;;2668870;76;20461;-92
2023/03/14 16:47:09;;;;;;;;;;;8.62;5.27;;;;;;2667815;76;20457;-91
2023/03/14 16:50:43;;;;;;;;;;;;;;;;;;;;;
2023/03/14 16:54:04;;;;;;;;;;;8.41;3.96;;;;;;2666426;76;20468;-91
2023/03/14 16:57:32;;;;;;;;;;;8.32;4.68;;;;;;2665639;76;20459;-91
2023/03/14 17:01:08;;;;;;;;;;;8.30;4.04;;;;;;2666367;76;20371;-92
2023/03/14 17:04:31;;;;;;;;;;;8.32;4.51;;;;;;2666701;76;20441;-91
2023/03/14 17:07:59;;;;;;;;;;;8.24;4.55;;;;;;2665198;76;20475;-91
2023/03/14 17:11:32;;;;;;;;;;;8.04;4.67;;;;;;2665421;76;20471;-91
2023/03/14 17:15:00;;;;;;;;;;;7.88;4.65;;;;;;2667687;76;20605;-91
2023/03/14 17:18:29;;;;;;;;;;;7.86;4.65;;;;;;2665810;76;20971;-91
2023/03/14 17:22:18;;;;;;;;;;;7.77;3.96;;;;;;2668580;76;20473;-91
2023/03/14 17:25:41;;;;;;;;;;;7.77;3.48;;;;;;2667991;76;20367;-91
2023/03/14 17:29:09;;;;;;;;;;;7.63;2.94;;;;;;2668602;76;20483;-92
2023/03/14 17:32:40;;;;;;;;;;;7.45;3.29;;;;;;2667888;76;20457;-90
2023/03/14 17:36:18;;;;;;;;;;;7.26;3.77;;;;;;2664184;76;20439;-91
2023/03/14 17:39:50;;;;;;;;;;;7.12;4.15;;;;;;2667617;76;20474;-91
2023/03/14 17:43:18;;;;;;;;;;;7.13;3.72;;;;;;2667114;76;20445;-91
2023/03/14 17:46:46;;;;;;;;;;;7.04;2.27;;;;;;2668549;76;20861;-90
2023/03/14 17:50:17;;;;;;;;;;;6.93;1.88;;;;;;2668149;76;20463;-91
2023/03/14 17:53:48;;;;;;;;;;;6.82;0.42;;;;;;2667868;76;20446;-91
2023/03/14 17:57:15;;;;;;;;;;;6.80;-1.03;;;;;;2667588;76;20449;-90
2023/03/14 18:00:44;;;;;;;;;;;6.76;-1.94;;;;;;2667520;76;21325;-90
2023/03/14 18:04:13;;;;;;;;;;;6.72;-1.80;;;;;;2666375;76;20447;-91
2023/03/14 18:07:43;;;;;;;;;;;6.70;-2.51;;;;;;2667357;76;20488;-90
2023/03/14 18:11:17;;;;;;;;;;;6.65;-2.01;;;;;;2666793;76;20485;-90
2023/03/14 18:14:47;;;;;;;;;;;6.59;-2.44;;;;;;2667263;75;20500;-90
2023/03/14 18:18:18;;;;;;;;;;;6.64;-3.22;;;;;;2667824;76;20467;-90
2023/03/14 18:21:50;;;;;;;;;;;6.73;-3.27;;;;;;2667872;76;20980;-90
2023/03/14 18:25:24;;;;;;;;;;;6.65;-4.19;;;;;;2668154;76;20455;-92
2023/03/14 18:28:58;;;;;;;;;;;6.64;-4.12;;;;;;2667969;76;20430;-90
2023/03/14 18:32:34;;;;;;;;;;;6.60;-3.84;;;;;;2668274;76;21150;-90
2023/03/14 18:36:04;;;;;;;;;;;6.58;-3.79;;;;;;2667397;76;20450;-90
2023/03/14 18:39:29;;;;;;;;;;;6.52;-3.85;;;;;;2668043;76;20460;-89
2023/03/14 18:43:17;;;;;;;;;;;6.49;-3.45;;;;;;2668591;76;20443;-90
2023/03/14 18:46:32;;;;;;;;;;;6.42;-3.42;;;;;;2668426;76;20343;-90
2023/03/14 18:50:04;;;;;;;;;;;6.46;-3.63;;;;;;2667326;76;20456;-90
2023/03/14 18:53:34;;;;;;;;;;;6.55;-2.76;;;;;;2666806;76;20979;-89
2023/03/14 18:57:08;;;;;;;;;;;6.51;-2.80;;;;;;2666008;76;20442;-89
2023/03/14 19:00:58;;;;;;;;;;;6.57;-2.75;;;;;;2667064;76;20519;-90
2023/03/14 19:04:31;;;;;;;;;;;6.66;-1.80;;;;;;2667384;76;20918;-89
2023/03/14 19:08:15;;;;;;;;;;;6.60;-2.07;;;;;;2666678;76;20475;-88
2023/03/14 19:11:30;;;;;;;;;;;6.50;-2.23;;;;;;2667383;76;20428;-90
2023/03/14 19:15:01;;;;;;;;;;;6.46;-2.12;;;;;;2668583;76;20476;-89
2023/03/14 19:18:29;;;;;;;;;;;6.54;-1.44;;;;;;2667517;76;20746;-89
2023/03/14 19:21:58;;;;;;;;;;;6.55;-0.70;;;;;;2668693;76;20442;-89
2023/03/14 19:25:29;;;;;;;;;;;6.51;-0.32;;;;;;2668084;76;20518;-90
2023/03/14 19:29:00;;;;;;;;;;;6.45;0.05;;;;;;2665434;76;20499;-88
2023/03/14 19:32:33;;;;;;;;;;;6.43;0.45;;;;;;2666073;76;20471;-89
2023/03/14 19:36:11;;;;;;;;;;;6.42;0.99;;;;;;2666755;76;20925;-88
2023/03/14 19:39:44;;;;;;;;;;;6.58;1.58;;;;;;2666340;76;20420;-89
2023/03/14 19:43:15;;;;;;;;;;;6.60;0.39;;;;;;2666076;76;20461;-89
2023/03/14 19:46:45;;;;;;;;;;;6.73;0.65;;;;;;2666844;76;20474;-89
2023/03/14 19:50:27;;;;;;;;;;;6.85;1.03;;;;;;2665940;76;20452;-89
2023/03/14 19:57:54;;;;;;;;;;;6.80;1.03;;;;;;2662373;76;20468;-89
2023/03/14 20:01:23;;;;;;;;;;;6.87;1.32;;;;;;2663960;76;20496;-88
2023/03/14 20:05:05;;;;;;;;;;;7.04;2.27;;;;;;2662526;76;20499;-90
2023/03/14 20:08:48;;;;;;;;;;;7.07;2.04;;;;;;2662985;76;20449;-89
2023/03/14 20:12:14;;;;;;;;;;;7.10;2.40;;;;;;2664578;76;20514;-89
2023/03/14 20:15:42;;;;;;;;;;;7.11;2.93;;;;;;2666408;76;20454;-89
2023/03/14 20:19:10;;;;;;;;;;;7.01;1.49;;;;;;2665959;76;20487;-88
2023/03/14 20:22:39;;;;;;;;;;;7.18;2.41;;;;;;2664579;76;20433;-87
2023/03/14 20:26:07;;;;;;;;;;;7.15;1.97;;;;;;2661920;76;20922;-86
2023/03/14 20:29:36;;;;;;;;;;;7.13;1.65;;;;;;2662493;76;20998;-88
2023/03/14 20:33:11;;;;;;;;;;;7.10;1.73;;;;;;2665761;76;20462;-88
2023/03/14 20:36:34;;;;;;;;;;;7.02;1.51;;;;;;2664307;76;20739;-89
2023/03/14 20:40:05;;;;;;;;;;;7.07;2.38;;;;;;2665317;76;20885;-88
2023/03/14 20:43:32;;;;;;;;;;;6.91;2.90;;;;;;2664043;76;20443;-88
2023/03/14 20:47:00;;;;;;;;;;;6.84;3.60;;;;;;2665715;76;20454;-89
2023/03/14 20:50:28;;;;;;;;;;;6.89;4.03;;;;;;2665893;76;20457;-88
2023/03/14 20:53:56;;;;;;;;;;;6.74;3.64;;;;;;2667208;76;20572;-89
2023/03/14 20:57:24;;;;;;;;;;;6.71;3.70;;;;;;2666282;76;20436;-87
2023/03/14 21:00:52;;;;;;;;;;;6.55;3.13;;;;;;2665832;76;21092;-89
2023/03/14 21:04:20;;;;;;;;;;;6.50;3.47;;;;;;2666367;76;20821;-88
2023/03/14 21:07:49;;;;;;;;;;;6.44;3.62;;;;;;2665590;76;20428;-89
2023/03/14 21:11:17;;;;;;;;;;;6.38;4.01;;;;;;2668623;76;20944;-89
2023/03/14 21:14:45;;;;;;;;;;;6.44;4.50;;;;;;2669082;76;20977;-88
2023/03/14 21:18:13;;;;;;;;;;;6.46;4.77;;;;;;2668258;76;20477;-89
2023/03/14 21:21:41;;;;;;;;;;;6.42;5.17;;;;;;2668010;76;20486;-89